createdAt,value
2019-03-05T00:01:54.476Z,4.20
2019-03-05T00:04:24.997Z,4.10
2019-03-05T00:06:55.556Z,4.10
2019-03-05T00:09:26.060Z,4.10
2019-03-05T00:11:56.613Z,4.10
2019-03-05T00:14:28.258Z,4.00
2019-03-05T00:16:58.898Z,4.00
2019-03-05T00:19:29.711Z,4.10
2019-03-05T00:22:00.288Z,4.10
2019-03-05T00:25:18.385Z,4.10
2019-03-05T00:28:36.757Z,4.10
2019-03-05T00:31:27.836Z,4.20
2019-03-05T00:34:41.154Z,4.20
2019-03-05T00:37:36.485Z,4.20
2019-03-05T00:40:29.119Z,4.30
2019-03-05T00:43:28.450Z,4.30
2019-03-05T00:46:35.211Z,4.40
2019-03-05T00:49:24.894Z,4.30
2019-03-05T00:52:35.044Z,4.40
2019-03-05T00:56:09.046Z,4.40
2019-03-05T00:59:16.193Z,4.50
2019-03-05T01:02:43.475Z,4.50
2019-03-05T01:06:22.001Z,4.50
2019-03-05T01:08:53.972Z,4.60
2019-03-05T01:11:25.367Z,4.60
2019-03-05T01:13:55.914Z,4.70
2019-03-05T01:16:30.484Z,4.60
2019-03-05T01:19:00.997Z,4.40
2019-03-05T01:21:31.522Z,4.30
2019-03-05T01:24:02.103Z,4.30
2019-03-05T01:26:32.627Z,4.40
2019-03-05T01:29:03.084Z,4.30
2019-03-05T01:31:52.649Z,4.40
2019-03-05T01:34:48.458Z,4.40
2019-03-05T01:37:19.155Z,4.40
2019-03-05T01:40:08.707Z,4.40
2019-03-05T01:42:39.306Z,4.50
2019-03-05T01:45:12.156Z,4.50
2019-03-05T01:47:43.830Z,4.50
2019-03-05T01:50:15.500Z,4.50
2019-03-05T01:52:46.215Z,4.60
2019-03-05T01:55:16.744Z,4.60
2019-03-05T01:57:47.402Z,4.70
2019-03-05T02:00:18.009Z,4.80
2019-03-05T02:02:48.666Z,4.70
2019-03-05T02:05:20.008Z,4.70
2019-03-05T02:07:51.666Z,4.80
2019-03-05T02:10:23.084Z,4.80
2019-03-05T02:12:53.834Z,4.80
2019-03-05T02:15:24.282Z,4.80
2019-03-05T02:17:55.341Z,4.80
2019-03-05T02:20:27.120Z,4.80
2019-03-05T02:23:26.250Z,4.80
2019-03-05T02:26:49.081Z,4.80
2019-03-05T02:29:41.470Z,4.80
2019-03-05T02:33:08.657Z,4.80
2019-03-05T02:36:38.453Z,4.80
2019-03-05T02:40:12.525Z,4.80
2019-03-05T02:43:29.842Z,4.70
2019-03-05T02:46:14.708Z,4.70
2019-03-05T02:49:35.721Z,4.70
2019-03-05T02:53:00.434Z,4.70
2019-03-05T02:56:23.883Z,4.80
2019-03-05T02:58:52.000Z,4.80
2019-03-05T03:01:41.556Z,4.80
2019-03-05T03:04:15.406Z,4.70
2019-03-05T03:06:46.017Z,4.60
2019-03-05T03:10:12.936Z,4.70
2019-03-05T03:12:44.730Z,4.70
2019-03-05T03:15:17.568Z,4.60
2019-03-05T03:17:49.319Z,4.60
2019-03-05T03:20:21.568Z,4.60
2019-03-05T03:22:52.301Z,4.70
2019-03-05T03:25:24.126Z,4.70
2019-03-05T03:27:55.176Z,4.70
2019-03-05T03:30:29.790Z,4.70
2019-03-05T03:33:00.376Z,4.70
2019-03-05T03:35:31.588Z,4.70
2019-03-05T03:38:02.114Z,4.70
2019-03-05T03:40:33.127Z,4.70
2019-03-05T03:43:03.637Z,4.70
2019-03-05T03:45:34.306Z,4.80
2019-03-05T03:48:05.185Z,4.80
2019-03-05T03:50:35.818Z,4.80
2019-03-05T03:53:06.317Z,4.70
2019-03-05T03:55:36.962Z,4.70
2019-03-05T03:58:07.410Z,4.70
2019-03-05T04:00:37.964Z,4.70
2019-03-05T04:03:08.590Z,4.80
2019-03-05T04:05:40.097Z,4.80
2019-03-05T04:08:10.724Z,4.70
2019-03-05T04:10:41.322Z,4.70
2019-03-05T04:13:11.770Z,4.80
2019-03-05T04:15:42.460Z,4.80
2019-03-05T04:18:13.385Z,4.80
2019-03-05T04:20:48.229Z,4.80
2019-03-05T04:23:18.993Z,4.70
2019-03-05T04:25:49.685Z,4.70
2019-03-05T04:28:20.191Z,4.60
2019-03-05T04:30:50.756Z,4.60
2019-03-05T04:33:21.492Z,4.50
2019-03-05T04:35:52.308Z,4.60
2019-03-05T04:38:22.871Z,4.50
2019-03-05T04:40:53.329Z,4.50
2019-03-05T04:43:24.166Z,4.60
2019-03-05T04:46:10.735Z,4.60
2019-03-05T04:48:43.260Z,4.60
2019-03-05T04:51:32.984Z,4.70
2019-03-05T04:54:04.458Z,4.70
2019-03-05T04:56:34.887Z,4.70
2019-03-05T04:59:05.599Z,4.60
2019-03-05T05:01:36.036Z,4.60
2019-03-05T05:04:06.949Z,4.50
2019-03-05T05:06:37.797Z,4.50
2019-03-05T05:09:09.043Z,4.40
2019-03-05T05:11:39.475Z,4.40
2019-03-05T05:14:09.926Z,4.40
2019-03-05T05:16:40.600Z,4.40
2019-03-05T05:19:11.129Z,4.40
2019-03-05T05:21:41.657Z,4.30
2019-03-05T05:24:12.290Z,4.30
2019-03-05T05:26:42.813Z,4.30
2019-03-05T05:29:13.557Z,4.30
2019-03-05T05:31:44.077Z,4.30
2019-03-05T05:34:14.782Z,4.30
2019-03-05T05:36:45.275Z,4.30
2019-03-05T05:40:09.916Z,4.30
2019-03-05T05:42:40.965Z,4.30
2019-03-05T05:45:15.945Z,4.20
2019-03-05T05:47:46.401Z,4.20
2019-03-05T05:50:16.890Z,4.20
2019-03-05T05:52:47.563Z,4.20
2019-03-05T05:55:18.153Z,4.20
2019-03-05T05:57:48.673Z,4.30
2019-03-05T06:00:19.308Z,4.20
2019-03-05T06:02:50.113Z,4.30
2019-03-05T06:05:21.015Z,4.40
2019-03-05T06:07:51.699Z,4.40
2019-03-05T06:10:22.140Z,4.40
2019-03-05T06:12:52.673Z,4.50
2019-03-05T06:15:23.370Z,4.50
2019-03-05T06:17:54.667Z,4.50
2019-03-05T06:20:25.367Z,4.50
2019-03-05T06:22:56.255Z,4.60
2019-03-05T06:25:26.943Z,4.60
2019-03-05T06:27:58.393Z,4.60
2019-03-05T06:30:29.515Z,4.60
2019-03-05T06:33:00.048Z,4.70
2019-03-05T06:35:30.557Z,4.70
2019-03-05T06:38:01.217Z,4.80
2019-03-05T06:40:31.860Z,4.80
2019-03-05T06:43:03.310Z,4.80
2019-03-05T06:45:34.031Z,4.80
2019-03-05T06:48:05.536Z,4.90
2019-03-05T06:50:36.041Z,4.90
2019-03-05T06:53:06.505Z,5.00
2019-03-05T06:55:37.014Z,5.10
2019-03-05T06:58:07.720Z,5.10
2019-03-05T07:00:39.315Z,5.10
2019-03-05T07:03:10.432Z,5.20
2019-03-05T07:06:34.846Z,5.20
2019-03-05T07:09:29.467Z,5.30
2019-03-05T07:12:52.861Z,5.40
2019-03-05T07:16:11.372Z,5.40
2019-03-05T07:19:18.214Z,5.50
2019-03-05T07:22:34.482Z,5.50
2019-03-05T07:25:05.110Z,5.50
2019-03-05T07:27:38.701Z,5.50
2019-03-05T07:30:26.527Z,5.50
2019-03-05T07:32:59.375Z,5.50
2019-03-05T07:35:32.462Z,5.60
2019-03-05T07:38:03.539Z,5.60
2019-03-05T07:40:34.064Z,5.60
2019-03-05T07:43:04.648Z,5.60
2019-03-05T07:45:35.161Z,5.70
2019-03-05T07:48:05.895Z,5.70
2019-03-05T07:50:36.395Z,5.60
2019-03-05T07:53:07.360Z,5.60
2019-03-05T07:55:38.480Z,5.70
2019-03-05T07:58:09.125Z,5.70
2019-03-05T08:00:40.038Z,5.80
2019-03-05T08:03:11.245Z,5.80
2019-03-05T08:05:41.947Z,5.90
2019-03-05T08:09:07.554Z,5.80
2019-03-05T08:11:38.369Z,5.80
2019-03-05T08:14:53.541Z,5.80
2019-03-05T08:17:25.170Z,5.80
2019-03-05T08:19:55.739Z,5.90
2019-03-05T08:22:26.598Z,5.90
2019-03-05T08:24:57.400Z,5.90
2019-03-05T08:27:27.957Z,5.90
2019-03-05T08:29:58.492Z,5.90
2019-03-05T08:32:29.014Z,5.90
2019-03-05T08:34:59.944Z,6.00
2019-03-05T08:37:30.429Z,6.00
2019-03-05T08:40:01.099Z,6.10
2019-03-05T08:42:32.024Z,6.10
2019-03-05T08:45:02.590Z,6.10
2019-03-05T08:47:33.104Z,6.10
2019-03-05T08:50:03.756Z,6.30
2019-03-05T08:52:34.177Z,6.50
2019-03-05T08:55:05.418Z,6.70
2019-03-05T08:57:35.933Z,6.90
2019-03-05T09:00:10.315Z,6.80
2019-03-05T09:02:48.567Z,6.80
2019-03-05T09:05:14.161Z,6.60
2019-03-05T09:07:45.009Z,6.80
2019-03-05T09:10:16.473Z,7.00
2019-03-05T09:12:47.699Z,7.00
2019-03-05T09:15:18.862Z,7.10
2019-03-05T09:17:49.463Z,7.10
2019-03-05T09:20:20.149Z,7.00
2019-03-05T09:22:51.127Z,7.00
2019-03-05T09:25:22.078Z,6.90
2019-03-05T09:27:52.703Z,6.80
2019-03-05T09:30:23.444Z,6.80
2019-03-05T09:32:53.966Z,6.70
2019-03-05T09:35:24.531Z,6.90
2019-03-05T09:37:55.134Z,6.90
2019-03-05T09:40:25.955Z,7.00
2019-03-05T09:42:56.669Z,7.00
2019-03-05T09:45:28.463Z,6.90
2019-03-05T09:47:59.145Z,6.90
2019-03-05T09:50:32.017Z,6.70
2019-03-05T09:53:02.800Z,6.70
2019-03-05T09:55:36.517Z,6.70
2019-03-05T09:58:08.844Z,6.80
2019-03-05T10:00:39.487Z,6.80
2019-03-05T10:03:10.450Z,6.90
2019-03-05T10:05:41.358Z,6.80
2019-03-05T10:08:12.011Z,6.80
2019-03-05T10:10:42.756Z,6.80
2019-03-05T10:13:13.512Z,7.00
2019-03-05T10:15:44.083Z,6.90
2019-03-05T10:18:14.774Z,6.90
2019-03-05T10:20:45.316Z,7.00
2019-03-05T10:23:15.937Z,7.10
2019-03-05T10:25:46.378Z,7.20
2019-03-05T10:28:16.982Z,7.00
2019-03-05T10:30:47.510Z,7.20
2019-03-05T10:33:19.241Z,7.20
2019-03-05T10:35:50.076Z,7.30
2019-03-05T10:38:20.604Z,7.20
2019-03-05T10:40:52.182Z,7.30
2019-03-05T10:43:23.155Z,7.40
2019-03-05T10:45:53.678Z,7.10
2019-03-05T10:48:24.728Z,7.10
2019-03-05T10:50:55.980Z,7.20
2019-03-05T10:53:26.525Z,6.80
2019-03-05T10:55:57.233Z,6.60
2019-03-05T10:58:33.977Z,6.30
2019-03-05T11:01:00.531Z,5.90
2019-03-05T11:03:31.621Z,5.80
2019-03-05T11:06:02.505Z,5.40
2019-03-05T11:08:33.677Z,5.20
2019-03-05T11:11:13.090Z,5.10
2019-03-05T11:13:37.146Z,5.10
2019-03-05T11:16:08.209Z,5.10
2019-03-05T11:18:38.933Z,5.10
2019-03-05T11:21:09.633Z,4.90
2019-03-05T11:23:40.081Z,4.80
2019-03-05T11:26:10.991Z,4.70
2019-03-05T11:28:41.527Z,4.50
2019-03-05T11:31:12.460Z,4.40
2019-03-05T11:33:43.067Z,4.30
2019-03-05T11:36:13.741Z,4.30
2019-03-05T11:38:44.414Z,4.20
2019-03-05T11:41:15.159Z,4.10
2019-03-05T11:43:45.753Z,4.00
2019-03-05T11:46:18.796Z,4.10
2019-03-05T11:48:49.846Z,4.20
2019-03-05T11:51:20.402Z,4.20
2019-03-05T11:53:50.951Z,4.20
2019-03-05T11:56:21.460Z,4.20
2019-03-05T11:58:52.368Z,4.10
2019-03-05T12:01:31.054Z,4.10
2019-03-05T12:04:01.522Z,4.20
2019-03-05T12:06:32.162Z,4.20
2019-03-05T12:09:02.691Z,4.30
2019-03-05T12:11:33.328Z,4.40
2019-03-05T12:14:03.835Z,4.40
2019-03-05T12:16:34.425Z,4.50
2019-03-05T12:19:05.715Z,4.50
2019-03-05T12:21:36.755Z,4.60
2019-03-05T12:24:07.263Z,4.60
2019-03-05T12:26:37.924Z,4.70
2019-03-05T12:29:08.438Z,4.70
2019-03-05T12:31:39.338Z,4.80
2019-03-05T12:34:10.795Z,4.80
2019-03-05T12:36:41.539Z,4.90
2019-03-05T12:39:13.568Z,4.90
2019-03-05T12:41:44.509Z,4.90
2019-03-05T12:44:14.958Z,4.90
2019-03-05T12:46:45.659Z,4.70
2019-03-05T12:49:17.072Z,4.80
2019-03-05T12:51:47.949Z,4.90
2019-03-05T12:54:18.769Z,4.90
2019-03-05T12:56:49.393Z,4.90
2019-03-05T12:59:19.846Z,5.00
2019-03-05T13:01:50.488Z,4.90
2019-03-05T13:04:21.055Z,4.80
2019-03-05T13:06:51.785Z,4.80
2019-03-05T13:09:22.630Z,4.80
2019-03-05T13:11:53.298Z,4.90
2019-03-05T13:14:24.162Z,4.90
2019-03-05T13:16:54.875Z,4.90
2019-03-05T13:19:25.669Z,4.90
2019-03-05T13:21:56.838Z,5.00
2019-03-05T13:24:27.355Z,4.80
2019-03-05T13:26:58.276Z,4.80
2019-03-05T13:29:28.816Z,4.80
2019-03-05T13:31:59.460Z,4.80
2019-03-05T13:34:29.903Z,4.80
2019-03-05T13:37:01.063Z,4.70
2019-03-05T13:39:31.842Z,4.80
2019-03-05T13:42:02.295Z,4.80
2019-03-05T13:44:37.415Z,4.80
2019-03-05T13:47:13.193Z,4.80
2019-03-05T13:50:44.301Z,4.70
2019-03-05T13:54:00.571Z,4.70
2019-03-05T13:57:21.151Z,4.80
2019-03-05T13:59:52.060Z,4.70
2019-03-05T14:02:30.038Z,4.70
2019-03-05T14:05:52.278Z,4.70
2019-03-05T14:09:19.347Z,4.70
2019-03-05T14:11:54.296Z,4.80
2019-03-05T14:14:31.841Z,4.90
2019-03-05T14:17:10.511Z,4.90
2019-03-05T14:19:41.390Z,5.00
2019-03-05T14:22:11.939Z,5.00
2019-03-05T14:24:42.456Z,5.10
2019-03-05T14:27:13.139Z,5.10
2019-03-05T14:29:44.046Z,5.10
2019-03-05T14:32:14.832Z,5.00
2019-03-05T14:35:05.502Z,5.10
2019-03-05T14:37:36.208Z,5.10
2019-03-05T14:40:23.734Z,5.10
2019-03-05T14:42:42.567Z,5.10
2019-03-05T14:45:19.894Z,5.20
2019-03-05T14:47:50.610Z,5.20
2019-03-05T14:50:21.583Z,5.10
2019-03-05T14:52:52.122Z,5.10
2019-03-05T14:55:22.541Z,5.20
2019-03-05T14:57:53.770Z,5.20
2019-03-05T15:00:24.940Z,5.20
2019-03-05T15:02:55.569Z,5.30
2019-03-05T15:05:26.198Z,5.20
2019-03-05T15:07:56.742Z,5.30
2019-03-05T15:10:27.390Z,5.30
2019-03-05T15:12:58.202Z,5.30
2019-03-05T15:15:31.013Z,5.50
2019-03-05T15:18:01.526Z,5.60
2019-03-05T15:20:32.048Z,5.50
2019-03-05T15:23:02.665Z,5.40
2019-03-05T15:25:33.204Z,5.30
2019-03-05T15:28:03.827Z,5.30
2019-03-05T15:30:34.726Z,5.30
2019-03-05T15:33:05.324Z,5.20
2019-03-05T15:35:35.874Z,5.30
2019-03-05T15:38:07.092Z,5.20
2019-03-05T15:40:37.630Z,5.20
2019-03-05T15:43:08.162Z,5.30
2019-03-05T15:45:38.628Z,5.30
2019-03-05T15:48:09.597Z,5.30
2019-03-05T15:50:40.113Z,5.30
2019-03-05T15:53:10.562Z,5.30
2019-03-05T15:55:41.212Z,6.30
2019-03-05T15:58:11.727Z,6.00
2019-03-05T16:00:42.777Z,5.70
2019-03-05T16:03:13.224Z,5.50
2019-03-05T16:05:44.176Z,5.40
2019-03-05T16:08:14.812Z,5.40
2019-03-05T16:10:45.255Z,5.40
2019-03-05T16:13:19.375Z,5.40
2019-03-05T16:15:48.642Z,5.40
2019-03-05T16:18:19.304Z,5.30
2019-03-05T16:20:49.743Z,5.30
2019-03-05T16:23:20.658Z,5.30
2019-03-05T16:25:52.110Z,5.50
2019-03-05T16:28:22.691Z,5.40
2019-03-05T16:31:21.607Z,5.40
2019-03-05T16:37:12.919Z,5.40
2019-03-05T16:39:58.839Z,5.30
2019-03-05T16:42:46.924Z,5.30
2019-03-05T16:45:27.826Z,5.30
2019-03-05T16:48:13.654Z,5.30
2019-03-05T16:48:18.980Z,5.40
2019-03-05T16:51:12.034Z,5.30
2019-03-05T16:54:01.934Z,5.30
2019-03-05T16:56:51.998Z,5.20
2019-03-05T16:59:40.374Z,5.20
2019-03-05T17:02:36.262Z,5.20
2019-03-05T17:05:27.816Z,5.30
2019-03-05T17:08:29.652Z,5.20
2019-03-05T17:11:22.971Z,5.20
2019-03-05T17:13:53.774Z,5.20
2019-03-05T17:16:24.894Z,5.20
2019-03-05T17:18:55.427Z,5.20
2019-03-05T17:21:27.816Z,5.30
2019-03-05T17:27:19.000Z,5.20
2019-03-05T17:29:49.085Z,5.20
2019-03-05T17:32:19.239Z,5.20
2019-03-05T17:34:49.477Z,5.10
2019-03-05T17:37:19.578Z,5.10
2019-03-05T17:39:49.985Z,5.10
2019-03-05T17:42:20.720Z,5.00
2019-03-05T17:44:50.909Z,5.00
2019-03-05T17:47:21.058Z,5.00
2019-03-05T17:49:51.275Z,5.00
2019-03-05T17:52:21.632Z,4.90
2019-03-05T17:54:51.856Z,4.90
2019-03-05T17:57:21.887Z,4.80
2019-03-05T17:59:52.098Z,4.80
2019-03-05T18:02:22.189Z,4.70
2019-03-05T18:04:52.295Z,4.60
2019-03-05T18:07:22.310Z,4.70
2019-03-05T18:09:52.483Z,4.70
2019-03-05T18:12:22.657Z,4.60
2019-03-05T18:14:53.151Z,4.50
2019-03-05T18:17:23.726Z,4.50
2019-03-05T18:19:53.755Z,4.50
2019-03-05T18:22:23.846Z,4.40
2019-03-05T18:24:54.174Z,4.40
2019-03-05T18:27:24.812Z,4.40
2019-03-05T18:29:55.081Z,4.40
2019-03-05T18:32:25.247Z,4.30
2019-03-05T18:34:55.431Z,4.40
2019-03-05T18:37:25.525Z,4.40
2019-03-05T18:39:55.621Z,4.30
2019-03-05T18:42:26.067Z,4.30
2019-03-05T18:44:56.108Z,4.30
2019-03-05T18:47:26.232Z,4.30
2019-03-05T18:49:56.913Z,4.20
2019-03-05T18:52:27.074Z,4.20
2019-03-05T18:54:57.471Z,4.20
2019-03-05T18:57:27.576Z,4.20
2019-03-05T18:59:57.678Z,4.20
2019-03-05T19:02:27.833Z,4.20
2019-03-05T19:04:58.067Z,4.20
2019-03-05T19:07:28.238Z,4.20
2019-03-05T19:09:58.345Z,4.10
2019-03-05T19:12:28.512Z,4.10
2019-03-05T19:14:58.552Z,4.10
2019-03-05T19:17:28.644Z,4.10
2019-03-05T19:19:58.667Z,4.10
2019-03-05T19:22:28.924Z,4.00
2019-03-05T19:24:59.263Z,4.00
2019-03-05T19:27:30.028Z,4.00
2019-03-05T19:30:00.248Z,4.00
2019-03-05T19:32:30.293Z,4.00
2019-03-05T19:35:00.570Z,4.00
2019-03-05T19:37:30.909Z,4.00
2019-03-05T19:40:01.084Z,4.00
2019-03-05T19:42:31.133Z,4.00
2019-03-05T19:45:01.600Z,4.00
2019-03-05T19:47:31.719Z,4.00
2019-03-05T19:50:01.815Z,4.10
2019-03-05T19:52:31.852Z,4.00
2019-03-05T19:55:01.948Z,4.00
2019-03-05T19:57:32.291Z,4.00
2019-03-05T20:00:02.998Z,4.10
2019-03-05T20:02:33.409Z,4.10
2019-03-05T20:05:03.491Z,4.00
2019-03-05T20:07:33.502Z,4.00
2019-03-05T20:10:04.561Z,4.00
2019-03-05T20:12:34.744Z,4.00
2019-03-05T20:15:05.632Z,4.10
2019-03-05T20:17:35.673Z,4.00
2019-03-05T20:20:06.144Z,4.00
2019-03-05T20:22:36.295Z,4.10
2019-03-05T20:25:09.882Z,4.10
2019-03-05T20:27:39.950Z,4.10
2019-03-05T20:30:17.302Z,4.10
2019-03-05T20:32:47.952Z,4.10
2019-03-05T20:35:18.213Z,4.10
2019-03-05T20:37:48.748Z,4.10
2019-03-05T20:40:19.971Z,4.10
2019-03-05T20:42:50.241Z,4.10
2019-03-05T20:45:25.085Z,4.10
2019-03-05T20:47:55.247Z,4.10
2019-03-05T20:50:25.788Z,4.10
2019-03-05T20:52:55.894Z,4.10
2019-03-05T20:55:26.126Z,4.00
2019-03-05T20:57:56.445Z,4.00
2019-03-05T21:00:29.381Z,4.00
2019-03-05T21:03:02.507Z,4.00
2019-03-05T21:05:38.301Z,4.00
2019-03-05T21:08:09.000Z,4.00
2019-03-05T21:10:39.221Z,4.00
2019-03-05T21:13:10.158Z,4.00
2019-03-05T21:15:40.462Z,4.10
2019-03-05T21:18:10.631Z,4.00
2019-03-05T21:20:41.431Z,4.00
2019-03-05T21:23:11.733Z,4.10
2019-03-05T21:25:41.811Z,4.00
2019-03-05T21:28:12.131Z,4.00
2019-03-05T21:30:42.589Z,4.10
2019-03-05T21:33:12.677Z,4.00
2019-03-05T21:35:42.834Z,4.00
2019-03-05T21:38:12.864Z,4.00
2019-03-05T21:40:43.019Z,3.90
2019-03-05T21:43:13.109Z,3.90
2019-03-05T21:45:43.498Z,4.00
2019-03-05T21:48:13.593Z,4.00
2019-03-05T21:50:44.162Z,3.90
2019-03-05T21:53:14.359Z,3.90
2019-03-05T21:55:44.829Z,3.90
2019-03-05T21:58:15.521Z,3.90
2019-03-05T22:00:45.726Z,4.00
2019-03-05T22:03:15.883Z,3.90
2019-03-05T22:05:46.344Z,3.80
2019-03-05T22:08:16.764Z,3.90
2019-03-05T22:10:46.855Z,3.90
2019-03-05T22:13:17.021Z,3.90
2019-03-05T22:15:47.032Z,3.90
2019-03-05T22:18:17.115Z,3.90
2019-03-05T22:20:47.284Z,4.00
2019-03-05T22:23:17.382Z,3.90
2019-03-05T22:25:47.556Z,3.90
2019-03-05T22:28:17.893Z,4.00
2019-03-05T22:30:48.066Z,4.10
2019-03-05T22:33:18.199Z,4.00
2019-03-05T22:35:48.366Z,4.10
2019-03-05T22:38:18.384Z,4.10
2019-03-05T22:40:48.481Z,4.10
2019-03-05T22:43:18.919Z,4.10
2019-03-05T22:45:49.108Z,4.10
2019-03-05T22:48:19.122Z,4.10
2019-03-05T22:50:49.295Z,4.00
2019-03-05T22:53:19.307Z,4.10
2019-03-05T22:55:49.344Z,4.10
2019-03-05T22:58:19.768Z,4.10
2019-03-05T23:01:17.577Z,4.10
2019-03-05T23:04:00.013Z,4.20
2019-03-05T23:06:30.314Z,4.20
2019-03-05T23:09:00.509Z,4.20
2019-03-05T23:11:31.017Z,4.20
2019-03-05T23:14:01.379Z,4.20
2019-03-05T23:16:31.615Z,4.20
2019-03-05T23:19:01.806Z,4.30
2019-03-05T23:21:31.919Z,4.30
2019-03-05T23:24:02.018Z,4.20
2019-03-05T23:26:32.793Z,4.40
2019-03-05T23:29:02.975Z,4.30
2019-03-05T23:31:33.184Z,4.30
2019-03-05T23:34:03.680Z,4.30
2019-03-05T23:36:33.828Z,4.30
2019-03-05T23:39:05.293Z,4.30
2019-03-05T23:41:35.422Z,4.40
2019-03-05T23:44:05.667Z,4.40
2019-03-05T23:46:35.847Z,4.40
2019-03-05T23:49:07.412Z,4.40
2019-03-05T23:51:37.592Z,4.40
2019-03-05T23:54:07.779Z,4.40
2019-03-05T23:56:38.250Z,4.50
2019-03-05T23:59:08.342Z,4.50
